createdAt,value
2018-12-22T00:03:03.926Z,41.03
2018-12-22T00:07:07.861Z,39.73
2018-12-22T00:11:11.903Z,46.80
2018-12-22T00:15:15.886Z,39.53
2018-12-22T00:19:19.822Z,40.63
2018-12-22T00:23:23.858Z,41.90
2018-12-22T00:27:27.855Z,49.60
2018-12-22T00:31:31.928Z,42.73
2018-12-22T00:35:35.872Z,50.40
2018-12-22T00:39:39.827Z,40.83
2018-12-22T00:43:43.787Z,36.57
2018-12-22T00:47:47.718Z,36.70
2018-12-22T00:51:51.700Z,45.27
2018-12-22T00:55:55.780Z,41.07
2018-12-22T00:59:59.674Z,52.50
2018-12-22T01:04:03.850Z,45.17
2018-12-22T01:08:07.832Z,50.87
2018-12-22T01:12:12.040Z,40.37
2018-12-22T01:16:15.974Z,50.43
2018-12-22T01:20:19.983Z,40.70
2018-12-22T01:25:26.643Z,47.33
2018-12-22T01:29:30.710Z,44.63
2018-12-22T01:33:34.931Z,47.60
2018-12-22T01:37:38.967Z,45.50
2018-12-22T01:41:42.945Z,43.00
2018-12-22T01:45:46.842Z,46.70
2018-12-22T01:49:50.795Z,40.90
2018-12-22T01:53:54.859Z,40.23
2018-12-22T01:57:58.810Z,37.03
2018-12-22T02:02:02.711Z,41.37
2018-12-22T02:06:06.715Z,40.60
2018-12-22T02:10:10.768Z,35.23
2018-12-22T02:14:14.823Z,34.15
2018-12-22T02:18:19.006Z,36.23
2018-12-22T02:22:22.936Z,31.43
2018-12-22T02:26:26.880Z,31.50
2018-12-22T02:30:30.895Z,39.17
2018-12-22T02:34:35.063Z,35.73
2018-12-22T02:38:39.070Z,27.67
2018-12-22T02:42:43.083Z,36.13
2018-12-22T02:46:47.203Z,29.03
2018-12-22T02:50:51.194Z,34.67
2018-12-22T02:54:55.144Z,34.13
2018-12-22T02:59:05.965Z,36.50
2018-12-22T03:03:04.990Z,36.23
2018-12-22T03:07:08.909Z,28.70
2018-12-22T03:11:12.800Z,36.80
2018-12-22T03:15:16.734Z,28.70
2018-12-22T03:19:20.711Z,30.27
2018-12-22T03:23:24.709Z,33.73
2018-12-22T03:27:28.717Z,35.57
2018-12-22T03:31:32.661Z,33.03
2018-12-22T03:35:36.604Z,35.30
2018-12-22T03:39:40.670Z,32.90
2018-12-22T03:43:44.659Z,19.93
2018-12-22T03:47:48.671Z,13.27
2018-12-22T03:51:52.721Z,14.37
2018-12-22T03:55:56.749Z,13.33
2018-12-22T04:00:00.769Z,19.77
2018-12-22T04:04:05.032Z,23.00
2018-12-22T04:08:08.993Z,18.27
2018-12-22T04:12:12.931Z,17.13
2018-12-22T04:16:16.860Z,14.27
2018-12-22T04:20:20.791Z,12.77
2018-12-22T04:24:24.719Z,12.57
2018-12-22T04:28:28.623Z,9.93
2018-12-22T04:32:32.565Z,4.10
2018-12-22T04:36:36.514Z,6.20
2018-12-22T04:40:40.497Z,6.13
2018-12-22T04:44:44.427Z,6.20
2018-12-22T04:48:48.364Z,9.93
2018-12-22T04:52:52.375Z,10.57
2018-12-22T04:56:56.326Z,13.07
2018-12-22T05:01:00.368Z,15.27
2018-12-22T05:05:04.518Z,15.70
2018-12-22T05:09:08.541Z,18.60
2018-12-22T05:13:12.541Z,15.03
2018-12-22T05:17:16.469Z,16.57
2018-12-22T05:21:20.409Z,15.40
2018-12-22T05:25:24.339Z,14.20
2018-12-22T05:29:28.264Z,15.67
2018-12-22T05:33:32.206Z,15.80
2018-12-22T05:37:36.161Z,18.43
2018-12-22T05:41:40.191Z,16.73
2018-12-22T05:45:44.133Z,21.40
2018-12-22T05:49:48.087Z,15.43
2018-12-22T05:53:52.062Z,20.60
2018-12-22T05:57:56.032Z,22.30
2018-12-22T06:02:00.160Z,22.37
2018-12-22T06:06:04.180Z,17.60
2018-12-22T06:10:08.373Z,21.33
2018-12-22T06:14:12.291Z,14.43
2018-12-22T06:18:16.373Z,18.10
2018-12-22T06:22:20.339Z,20.60
2018-12-22T06:26:24.271Z,16.73
2018-12-22T06:30:34.783Z,16.47
2018-12-22T06:34:38.843Z,21.47
2018-12-22T06:38:42.787Z,20.57
2018-12-22T06:42:46.715Z,26.20
2018-12-22T06:46:50.647Z,19.40
2018-12-22T06:50:54.575Z,25.00
2018-12-22T06:54:58.491Z,22.10
2018-12-22T06:59:02.419Z,23.03
2018-12-22T07:03:06.474Z,19.60
2018-12-22T07:07:10.372Z,15.43
2018-12-22T07:11:14.279Z,18.47
2018-12-22T07:15:18.210Z,18.50
2018-12-22T07:19:22.227Z,13.20
2018-12-22T07:23:26.251Z,21.53
2018-12-22T07:27:31.224Z,17.00
2018-12-22T07:31:35.116Z,17.13
2018-12-22T07:35:39.067Z,18.03
2018-12-22T07:39:43.007Z,16.83
2018-12-22T07:43:46.942Z,13.63
2018-12-22T07:47:50.875Z,17.13
2018-12-22T07:51:54.841Z,14.90
2018-12-22T07:55:58.771Z,15.47
2018-12-22T08:00:02.826Z,14.60
2018-12-22T08:04:06.907Z,11.80
2018-12-22T08:08:10.823Z,14.97
2018-12-22T08:12:14.812Z,15.90
2018-12-22T08:16:18.783Z,15.47
2018-12-22T08:20:22.878Z,12.80
2018-12-22T08:24:27.034Z,11.13
2018-12-22T08:28:30.987Z,8.60
2018-12-22T08:32:36.159Z,7.63
2018-12-22T08:36:40.118Z,8.33
2018-12-22T08:40:44.122Z,10.83
2018-12-22T08:44:48.145Z,8.70
2018-12-22T08:48:52.197Z,7.83
2018-12-22T08:52:56.119Z,9.57
2018-12-22T08:56:59.999Z,9.43
2018-12-22T09:01:04.042Z,10.63
2018-12-22T09:05:08.220Z,13.67
2018-12-22T09:09:12.190Z,10.47
2018-12-22T09:13:20.770Z,8.90
2018-12-22T09:17:22.034Z,9.10
2018-12-22T09:21:26.022Z,9.77
2018-12-22T09:25:30.020Z,11.03
2018-12-22T09:29:33.977Z,13.70
2018-12-22T09:33:37.923Z,10.60
2018-12-22T09:37:41.849Z,13.00
2018-12-22T09:41:45.826Z,10.23
2018-12-22T09:45:49.819Z,13.00
2018-12-22T09:49:53.898Z,14.57
2018-12-22T09:53:57.928Z,9.67
2018-12-22T09:58:01.877Z,11.20
2018-12-22T10:02:05.784Z,15.97
2018-12-22T10:06:09.702Z,14.27
2018-12-22T10:10:17.447Z,14.20
2018-12-22T10:14:21.548Z,13.33
2018-12-22T10:18:25.498Z,13.83
2018-12-22T10:22:29.403Z,13.30
2018-12-22T10:26:33.439Z,20.93
2018-12-22T10:30:37.346Z,18.30
2018-12-22T10:34:41.379Z,21.40
2018-12-22T10:38:45.288Z,20.53
2018-12-22T10:42:49.190Z,19.17
2018-12-22T10:46:53.150Z,18.10
2018-12-22T10:50:57.106Z,20.10
2018-12-22T10:55:01.182Z,18.63
2018-12-22T10:59:05.315Z,27.40
2018-12-22T11:03:09.478Z,18.90
2018-12-22T11:07:14.508Z,19.13
2018-12-22T11:11:18.488Z,16.87
2018-12-22T11:15:22.515Z,12.87
2018-12-22T11:19:26.476Z,17.87
2018-12-22T11:23:30.440Z,23.93
2018-12-22T11:27:34.433Z,15.03
2018-12-22T11:31:38.420Z,19.63
2018-12-22T11:35:42.379Z,11.27
2018-12-22T11:39:46.326Z,14.80
2018-12-22T11:43:50.266Z,14.37
2018-12-22T11:49:14.798Z,12.97
2018-12-22T11:53:18.746Z,12.40
2018-12-22T11:57:22.710Z,14.20
2018-12-22T12:01:26.741Z,12.37
2018-12-22T12:05:30.764Z,20.70
2018-12-22T12:09:34.784Z,14.63
2018-12-22T12:13:38.762Z,17.20
2018-12-22T12:17:55.148Z,16.43
2018-12-22T12:21:59.274Z,17.83
2018-12-22T12:26:03.247Z,14.47
2018-12-22T12:30:09.914Z,15.00
2018-12-22T12:34:13.882Z,12.90
2018-12-22T12:38:17.816Z,13.40
2018-12-22T12:42:21.843Z,17.97
2018-12-22T12:46:45.543Z,17.27
2018-12-22T12:50:49.622Z,12.97
2018-12-22T12:54:53.627Z,11.67
2018-12-22T12:58:57.515Z,12.63
2018-12-22T13:03:01.460Z,10.50
2018-12-22T13:07:05.454Z,13.43
2018-12-22T13:11:09.537Z,13.07
2018-12-22T13:15:13.750Z,12.47
2018-12-22T13:19:17.855Z,16.20
2018-12-22T13:23:21.910Z,17.67
2018-12-22T13:27:25.941Z,14.37
2018-12-22T13:31:30.061Z,13.83
2018-12-22T13:35:35.075Z,12.57
2018-12-22T13:39:39.055Z,15.97
2018-12-22T13:43:42.947Z,15.90
2018-12-22T13:47:46.950Z,16.33
2018-12-22T13:51:51.114Z,14.60
2018-12-22T13:55:55.180Z,16.70
2018-12-22T13:59:59.127Z,14.13
2018-12-22T14:04:03.186Z,13.60
2018-12-22T14:08:07.218Z,22.03
2018-12-22T14:12:11.194Z,17.77
2018-12-22T14:16:24.684Z,20.83
2018-12-22T14:20:29.886Z,17.07
2018-12-22T14:24:38.107Z,18.80
2018-12-22T14:28:42.086Z,20.57
2018-12-22T14:32:46.071Z,14.67
2018-12-22T14:36:50.133Z,19.77
2018-12-22T14:40:55.283Z,22.67
2018-12-22T14:44:59.316Z,16.20
2018-12-22T14:49:03.339Z,16.30
2018-12-22T14:53:07.295Z,14.90
2018-12-22T14:57:12.041Z,18.63
2018-12-22T15:01:16.220Z,18.63
2018-12-22T15:05:20.368Z,12.67
2018-12-22T15:09:24.258Z,25.73
2018-12-22T15:13:28.199Z,22.80
2018-12-22T15:17:32.291Z,15.23
2018-12-22T15:21:36.344Z,18.37
2018-12-22T15:25:40.318Z,19.20
2018-12-22T15:29:44.279Z,16.63
2018-12-22T15:33:48.243Z,23.60
2018-12-22T15:37:52.310Z,21.93
2018-12-22T15:41:56.300Z,16.60
2018-12-22T15:46:00.351Z,19.47
2018-12-22T15:50:05.487Z,20.53
2018-12-22T15:54:09.491Z,22.50
2018-12-22T15:58:13.526Z,18.67
2018-12-22T16:02:18.832Z,20.87
2018-12-22T16:06:23.986Z,19.83
2018-12-22T16:10:34.331Z,17.17
2018-12-22T16:14:38.263Z,17.40
2018-12-22T16:18:42.234Z,22.93
2018-12-22T16:22:50.066Z,16.10
2018-12-22T16:26:54.050Z,15.73
2018-12-22T16:30:58.927Z,20.33
2018-12-22T16:35:02.923Z,17.80
2018-12-22T16:39:08.295Z,14.40
2018-12-22T16:43:13.882Z,25.93
2018-12-22T16:47:17.878Z,20.97
2018-12-22T16:51:22.015Z,18.83
2018-12-22T16:55:26.378Z,19.83
2018-12-22T16:59:32.590Z,23.07
2018-12-22T17:03:36.617Z,20.63
2018-12-22T17:07:40.683Z,19.93
2018-12-22T17:11:44.625Z,17.60
2018-12-22T17:15:52.307Z,19.07
2018-12-22T17:19:56.393Z,21.07
2018-12-22T17:24:23.000Z,16.03
2018-12-22T17:28:28.505Z,19.60
2018-12-22T17:32:32.687Z,31.60
2018-12-22T17:36:36.790Z,19.20
2018-12-22T17:40:40.811Z,23.97
2018-12-22T17:44:44.803Z,20.03
2018-12-22T17:48:48.874Z,17.93
2018-12-22T17:52:52.850Z,21.47
2018-12-22T17:56:56.818Z,21.90
2018-12-22T18:01:00.818Z,31.47
2018-12-22T18:09:39.167Z,25.27
2018-12-22T18:13:43.150Z,26.97
2018-12-22T18:17:47.227Z,21.43
2018-12-22T18:21:51.182Z,19.13
2018-12-22T18:25:55.134Z,19.77
2018-12-22T18:29:59.096Z,22.33
2018-12-22T18:34:03.076Z,16.43
2018-12-22T18:38:07.094Z,19.10
2018-12-22T18:42:11.253Z,26.03
2018-12-22T18:46:15.247Z,22.00
2018-12-22T18:50:22.834Z,20.80
2018-12-22T18:54:26.796Z,23.83
2018-12-22T18:58:30.799Z,18.67
2018-12-22T19:02:34.762Z,27.60
2018-12-22T19:06:38.942Z,16.83
2018-12-22T19:10:51.898Z,17.13
2018-12-22T19:14:55.891Z,24.60
2018-12-22T19:18:59.918Z,27.33
2018-12-22T19:23:03.992Z,27.07
2018-12-22T19:27:07.971Z,24.33
2018-12-22T19:31:11.967Z,30.23
2018-12-22T19:35:16.129Z,23.60
2018-12-22T19:39:20.047Z,26.70
2018-12-22T19:43:24.970Z,25.50
2018-12-22T19:47:28.932Z,24.17
2018-12-22T19:51:32.931Z,25.83
2018-12-22T19:55:36.919Z,26.43
2018-12-22T19:59:40.912Z,26.67
2018-12-22T20:03:44.989Z,19.77
2018-12-22T20:07:49.103Z,21.47
2018-12-22T20:11:53.247Z,22.60
2018-12-22T20:15:57.395Z,14.70
2018-12-22T20:20:01.353Z,15.17
2018-12-22T20:24:06.586Z,16.00
2018-12-22T20:28:10.659Z,18.17
2018-12-22T20:32:14.691Z,20.63
2018-12-22T20:36:18.852Z,20.70
2018-12-22T20:40:22.808Z,22.93
2018-12-22T20:44:26.849Z,20.63
2018-12-22T20:48:30.796Z,29.27
2018-12-22T20:52:34.787Z,33.20
2018-12-22T20:56:38.759Z,35.13
2018-12-22T21:00:42.676Z,27.20
2018-12-22T21:04:46.735Z,86.70
2018-12-22T21:08:50.818Z,27.67
2018-12-22T21:12:54.806Z,65.20
2018-12-22T21:16:59.245Z,35.00
2018-12-22T21:21:03.195Z,24.87
2018-12-22T21:25:07.378Z,40.93
2018-12-22T21:29:11.406Z,47.37
2018-12-22T21:33:15.428Z,28.80
2018-12-22T21:41:54.713Z,27.60
2018-12-22T21:45:58.666Z,20.43
2018-12-22T21:50:02.619Z,41.70
2018-12-22T21:54:06.760Z,30.60
2018-12-22T21:58:10.791Z,29.63
2018-12-22T22:02:14.793Z,29.17
2018-12-22T22:06:18.718Z,21.17
2018-12-22T22:10:22.871Z,25.53
2018-12-22T22:14:26.851Z,24.87
2018-12-22T22:18:30.914Z,28.33
2018-12-22T22:22:34.866Z,24.83
2018-12-22T22:26:38.884Z,27.37
2018-12-22T22:30:42.888Z,25.47
2018-12-22T22:34:46.847Z,24.87
2018-12-22T22:38:50.790Z,33.23
2018-12-22T22:42:54.751Z,35.37
2018-12-22T22:46:58.801Z,26.27
2018-12-22T22:51:02.866Z,31.13
2018-12-22T22:55:06.882Z,29.47
2018-12-22T22:59:10.919Z,34.70
2018-12-22T23:03:15.070Z,41.53
2018-12-22T23:07:18.998Z,36.57
2018-12-22T23:11:22.954Z,35.17
2018-12-22T23:15:26.920Z,30.77
2018-12-22T23:19:30.831Z,27.90
2018-12-22T23:23:34.802Z,31.97
2018-12-22T23:27:38.721Z,29.33
2018-12-22T23:31:42.771Z,31.00
2018-12-22T23:35:46.718Z,30.70
2018-12-22T23:39:50.644Z,33.83
2018-12-22T23:43:54.575Z,30.07
2018-12-22T23:47:58.515Z,25.90
2018-12-22T23:56:37.314Z,39.23
